Time;durP1;ratioP1;P1;durP2;ratioP2;P2;SDS_P1;SDS_P2;PMS_P1;PMS_P2;Temp;Humidity;BMP_temperature;BMP_pressure;BME280_temperature;BME280_humidity;BME280_pressure;Samples;Min_cycle;Max_cycle;Signal;HPM_P1;HPM_P2
2022/06/12 00:00:36;;;;;;;1999.90;999.90;;;15.20;99.90;;;;;;5012878;28;20201;-59
2022/06/12 00:03:06;;;;;;;1999.90;999.90;;;15.10;99.90;;;;;;5012849;28;20205;-59
2022/06/12 00:05:35;;;;;;;1999.90;999.90;;;15.10;99.90;;;;;;5012883;28;20189;-59
2022/06/12 00:08:03;;;;;;;1999.90;999.90;;;15.00;99.90;;;;;;5012857;28;20205;-59
2022/06/12 00:10:30;;;;;;;1999.90;999.90;;;14.90;99.90;;;;;;5012603;28;20275;-60
2022/06/12 00:12:57;;;;;;;1999.90;999.90;;;14.90;99.90;;;;;;5012768;28;20197;-60
2022/06/12 00:15:28;;;;;;;1999.90;999.90;;;14.90;99.90;;;;;;5012749;28;20200;-60
2022/06/12 00:17:57;;;;;;;1999.90;999.90;;;14.80;99.90;;;;;;5012796;28;20195;-60
2022/06/12 00:20:25;;;;;;;1999.90;999.90;;;14.70;99.90;;;;;;5012659;28;20205;-59
2022/06/12 00:22:53;;;;;;;1999.90;999.90;;;14.80;99.90;;;;;;5012347;28;20220;-59
2022/06/12 00:25:22;;;;;;;1999.90;999.90;;;14.80;99.90;;;;;;5012916;28;20204;-60
2022/06/12 00:27:49;;;;;;;1999.90;999.90;;;14.70;99.90;;;;;;5012301;28;20208;-59
2022/06/12 00:30:20;;;;;;;1999.90;999.90;;;14.60;99.90;;;;;;5012366;28;20205;-59
2022/06/12 00:32:52;;;;;;;1999.90;999.90;;;14.50;99.90;;;;;;5012636;28;20235;-59
2022/06/12 00:35:23;;;;;;;1999.90;999.90;;;14.50;99.90;;;;;;5013016;28;20185;-59
2022/06/12 00:37:51;;;;;;;1999.90;999.90;;;14.40;99.90;;;;;;5016472;28;20189;-60
2022/06/12 00:40:18;;;;;;;1999.90;999.90;;;14.30;99.90;;;;;;5017694;28;20197;-60
2022/06/12 00:42:48;;;;;;;1999.90;999.90;;;14.20;99.90;;;;;;5016857;28;20209;-60
2022/06/12 00:45:43;;;;;;;1999.90;999.90;;;14.00;99.90;;;;;;5016673;28;20216;-59
2022/06/12 00:48:13;;;;;;;1999.90;999.90;;;13.90;99.90;;;;;;5016245;28;20185;-59
2022/06/12 00:50:45;;;;;;;1999.90;999.90;;;13.80;99.90;;;;;;5016032;28;20208;-59
2022/06/12 00:53:31;;;;;;;1999.90;999.90;;;13.90;99.90;;;;;;5016210;28;20188;-59
2022/06/12 00:56:05;;;;;;;1999.90;999.90;;;13.80;99.90;;;;;;5015975;28;20207;-60
2022/06/12 00:58:36;;;;;;;1999.90;999.90;;;13.70;99.90;;;;;;5016109;28;20669;-59
2022/06/12 01:01:05;;;;;;;1999.90;999.90;;;13.70;99.90;;;;;;5015727;28;20193;-59
2022/06/12 01:06:33;;;;;;;1999.90;999.90;;;13.90;99.90;;;;;;5016008;28;20193;-59
2022/06/12 01:06:35;;;;;;;1999.90;999.90;;;14.00;99.90;;;;;;5015640;28;20627;-59
2022/06/12 01:09:04;;;;;;;1999.90;999.90;;;13.90;99.90;;;;;;5015936;28;20181;-59
2022/06/12 01:11:32;;;;;;;1999.90;999.90;;;13.90;99.90;;;;;;5015595;28;20229;-59
2022/06/12 01:13:59;;;;;;;1999.90;999.90;;;13.90;99.90;;;;;;5015817;28;20193;-59
2022/06/12 01:16:26;;;;;;;1999.90;999.90;;;13.90;99.90;;;;;;5015401;28;20201;-59
2022/06/12 01:18:56;;;;;;;1999.90;999.90;;;13.80;99.90;;;;;;5015859;28;20205;-59
2022/06/12 01:21:56;;;;;;;1999.90;999.90;;;13.80;99.90;;;;;;5015491;28;20224;-59
2022/06/12 01:24:46;;;;;;;1999.90;999.90;;;13.60;99.90;;;;;;5015603;28;20193;-59
2022/06/12 01:27:34;;;;;;;1999.90;999.90;;;13.40;99.90;;;;;;5015667;28;20185;-59
2022/06/12 01:30:09;;;;;;;1999.90;999.90;;;13.30;99.90;;;;;;5015616;28;20192;-59
2022/06/12 01:32:45;;;;;;;1999.90;999.90;;;13.30;99.90;;;;;;5015614;28;20231;-59
2022/06/12 01:35:20;;;;;;;1999.90;999.90;;;13.40;99.90;;;;;;5015773;28;20541;-59
2022/06/12 01:37:51;;;;;;;1999.90;999.90;;;13.20;99.90;;;;;;5015314;28;20185;-59
2022/06/12 01:40:27;;;;;;;1999.90;999.90;;;13.00;99.90;;;;;;5015384;28;20192;-59
2022/06/12 01:43:03;;;;;;;1999.90;999.90;;;12.80;99.90;;;;;;5015178;28;20200;-59
2022/06/12 01:45:39;;;;;;;1999.90;999.90;;;12.70;99.90;;;;;;5015282;28;20636;-59
2022/06/12 01:48:23;;;;;;;1999.90;999.90;;;12.50;99.90;;;;;;5014025;28;20185;-59
2022/06/12 01:50:57;;;;;;;1999.90;999.90;;;12.50;99.90;;;;;;5014965;28;20195;-59
2022/06/12 01:53:34;;;;;;;1999.90;999.90;;;12.50;99.90;;;;;;5014732;28;20708;-59
2022/06/12 01:56:08;;;;;;;1999.90;999.90;;;12.60;99.90;;;;;;5015116;28;20189;-59
2022/06/12 01:58:45;;;;;;;1999.90;999.90;;;12.60;99.90;;;;;;5015137;28;20184;-59
2022/06/12 02:01:22;;;;;;;1999.90;999.90;;;12.60;99.90;;;;;;5016315;28;20212;-59
2022/06/12 02:03:58;;;;;;;1999.90;999.90;;;12.70;99.90;;;;;;5014996;28;20184;-59
2022/06/12 02:06:32;;;;;;;1999.90;999.90;;;12.70;99.90;;;;;;5014876;28;20200;-59
2022/06/12 02:09:04;;;;;;;1999.90;999.90;;;12.80;99.90;;;;;;5011513;28;20188;-60
2022/06/12 02:14:26;;;;;;;1999.90;999.90;;;13.00;99.90;;;;;;5014733;28;20191;-59
2022/06/12 02:16:58;;;;;;;1999.90;999.90;;;12.90;99.90;;;;;;5014400;28;20207;-60
2022/06/12 02:19:28;;;;;;;1999.90;999.90;;;13.00;99.90;;;;;;5014202;28;20524;-60
2022/06/12 02:21:59;;;;;;;1999.90;999.90;;;13.00;99.90;;;;;;5013853;28;20222;-60
2022/06/12 02:24:30;;;;;;;1999.90;999.90;;;12.90;99.90;;;;;;5014558;28;20180;-60
2022/06/12 02:27:00;;;;;;;1999.90;999.90;;;12.50;99.90;;;;;;5014455;28;20200;-60
2022/06/12 02:29:32;;;;;;;1999.90;999.90;;;12.20;99.90;;;;;;5014041;28;20185;-60
2022/06/12 02:32:04;;;;;;;1999.90;999.90;;;11.80;99.90;;;;;;5014361;28;20192;-60
2022/06/12 02:34:37;;;;;;;1999.90;999.90;;;11.80;99.90;;;;;;5014318;28;20184;-60
2022/06/12 02:37:08;;;;;;;1999.90;999.90;;;11.90;99.90;;;;;;5014303;28;20192;-60
2022/06/12 02:39:40;;;;;;;1999.90;999.90;;;11.90;99.90;;;;;;5013550;28;20620;-60
2022/06/12 02:42:10;;;;;;;1999.90;999.90;;;11.70;99.90;;;;;;5014090;28;20302;-60
2022/06/12 02:44:41;;;;;;;1999.90;999.90;;;11.90;99.90;;;;;;5014239;28;20194;-60
2022/06/12 02:47:13;;;;;;;1999.90;999.90;;;12.00;99.90;;;;;;5013719;28;20199;-60
2022/06/12 02:49:43;;;;;;;1999.90;999.90;;;12.20;99.90;;;;;;5013921;28;20185;-60
2022/06/12 02:52:20;;;;;;;1999.90;999.90;;;12.10;99.90;;;;;;5013739;28;20231;-60
2022/06/12 02:54:55;;;;;;;1999.90;999.90;;;12.20;99.90;;;;;;5013980;28;20183;-61
2022/06/12 02:57:31;;;;;;;1999.90;999.90;;;12.30;99.90;;;;;;5014014;28;20209;-60
2022/06/12 03:00:08;;;;;;;1999.90;999.90;;;12.00;99.90;;;;;;5013257;28;20516;-60
2022/06/12 03:02:41;;;;;;;1999.90;999.90;;;11.60;99.90;;;;;;5014297;28;20575;-60
2022/06/12 03:05:16;;;;;;;1999.90;999.90;;;11.70;99.90;;;;;;5013403;28;20700;-60
2022/06/12 03:07:43;;;;;;;1999.90;999.90;;;11.80;99.90;;;;;;5013752;28;20240;-60
2022/06/12 03:10:16;;;;;;;1999.90;999.90;;;11.90;99.90;;;;;;5013366;28;20227;-60
2022/06/12 03:12:44;;;;;;;1999.90;999.90;;;11.90;99.90;;;;;;5013392;28;20192;-61
2022/06/12 03:15:29;;;;;;;1999.90;999.90;;;12.00;99.90;;;;;;5013607;28;20595;-61
2022/06/12 03:17:58;;;;;;;1999.90;999.90;;;12.20;99.90;;;;;;5013219;28;20258;-60
2022/06/12 03:20:40;;;;;;;1999.90;999.90;;;12.40;99.90;;;;;;5012908;28;20675;-61
2022/06/12 03:23:15;;;;;;;1999.90;999.90;;;12.40;99.90;;;;;;5013385;28;20205;-60
2022/06/12 03:25:50;;;;;;;1999.90;999.90;;;12.40;99.90;;;;;;5013430;28;20283;-58
2022/06/12 03:28:27;;;;;;;1999.90;999.90;;;12.30;99.90;;;;;;5013105;28;20641;-59
2022/06/12 03:31:02;;;;;;;1999.90;999.90;;;12.30;99.90;;;;;;5013428;28;20246;-58
2022/06/12 03:33:39;;;;;;;1999.90;999.90;;;12.50;99.90;;;;;;5013381;28;20184;-58
2022/06/12 03:36:14;;;;;;;1999.90;999.90;;;12.80;99.90;;;;;;5015129;28;20192;-58
2022/06/12 03:38:47;;;;;;;1999.90;999.90;;;12.90;99.90;;;;;;5013283;28;20197;-59
2022/06/12 03:41:23;;;;;;;1999.90;999.90;;;12.70;99.90;;;;;;5012937;28;20186;-59
2022/06/12 03:43:55;;;;;;;1999.90;999.90;;;12.40;99.90;;;;;;5012855;28;20773;-59
2022/06/12 03:46:28;;;;;;;1999.90;999.90;;;12.40;99.90;;;;;;5013107;28;20180;-59
2022/06/12 03:49:07;;;;;;;1999.90;999.90;;;12.30;99.90;;;;;;5013154;28;20199;-59
2022/06/12 03:51:39;;;;;;;1999.90;999.90;;;12.30;99.90;;;;;;5012898;28;20227;-59
2022/06/12 03:54:15;;;;;;;1999.90;999.90;;;12.10;99.90;;;;;;5013048;28;20173;-59
2022/06/12 03:59:35;;;;;;;1999.90;999.90;;;11.80;99.90;;;;;;5012984;28;20179;-58
2022/06/12 04:02:04;;;;;;;1999.90;999.90;;;11.80;99.90;;;;;;5012827;28;20291;-58
2022/06/12 04:04:35;;;;;;;1999.90;999.90;;;11.80;99.90;;;;;;5012811;28;20207;-58
2022/06/12 04:07:07;;;;;;;1999.90;999.90;;;11.60;99.90;;;;;;5012895;28;20187;-59
2022/06/12 04:09:39;;;;;;;1999.90;999.90;;;11.70;99.90;;;;;;5012836;28;20193;-59
2022/06/12 04:12:15;;;;;;;1999.90;999.90;;;11.60;99.90;;;;;;5012020;28;20243;-59
2022/06/12 04:14:47;;;;;;;1999.90;999.90;;;11.50;99.90;;;;;;5012788;28;20194;-59
2022/06/12 04:17:14;;;;;;;1999.90;999.90;;;11.50;99.90;;;;;;5012768;28;20242;-58
2022/06/12 04:20:01;;;;;;;1999.90;999.90;;;11.50;99.90;;;;;;5012741;28;20204;-58
2022/06/12 04:22:35;;;;;;;1999.90;999.90;;;11.60;99.90;;;;;;5012392;28;20212;-58
2022/06/12 04:25:08;;;;;;;1999.90;999.90;;;11.90;99.90;;;;;;5012756;28;20587;-59
2022/06/12 04:27:38;;;;;;;1999.90;999.90;;;11.90;99.90;;;;;;5012869;28;20196;-58
2022/06/12 04:30:15;;;;;;;1999.90;999.90;;;12.10;99.90;;;;;;5012638;28;20242;-59
2022/06/12 04:32:43;;;;;;;1999.90;999.90;;;12.30;99.90;;;;;;5012596;28;20194;-58
2022/06/12 04:35:12;;;;;;;1999.90;999.90;;;12.60;99.90;;;;;;5012606;28;20275;-58
2022/06/12 04:37:40;;;;;;;1999.90;999.90;;;12.60;99.90;;;;;;5012574;28;20193;-59
2022/06/12 04:40:09;;;;;;;1999.90;999.90;;;12.70;99.90;;;;;;5012196;28;20302;-59
2022/06/12 04:42:36;;;;;;;1999.90;999.90;;;12.80;99.90;;;;;;5012403;28;20221;-59
2022/06/12 04:45:05;;;;;;;1999.90;999.90;;;12.90;99.90;;;;;;5012503;28;20204;-59
2022/06/12 04:47:33;;;;;;;1999.90;999.90;;;13.10;99.90;;;;;;5012404;28;20200;-58
2022/06/12 04:50:00;;;;;;;1999.90;999.90;;;13.10;99.90;;;;;;5012142;28;20264;-59
2022/06/12 04:52:30;;;;;;;1999.90;999.90;;;13.20;99.90;;;;;;5011458;28;20658;-59
2022/06/12 04:54:57;;;;;;;1999.90;999.90;;;13.40;99.90;;;;;;5012422;28;20296;-59
2022/06/12 04:57:25;;;;;;;1999.90;999.90;;;13.60;99.90;;;;;;5012308;28;20204;-59
2022/06/12 04:59:53;;;;;;;1999.90;999.90;;;13.80;99.90;;;;;;5012414;28;20604;-58
2022/06/12 05:02:20;;;;;;;1999.90;999.90;;;13.90;99.90;;;;;;5012223;28;20201;-58
2022/06/12 05:04:47;;;;;;;1999.90;999.90;;;14.00;99.90;;;;;;5012255;28;20259;-58
2022/06/12 05:07:15;;;;;;;1999.90;999.90;;;14.20;99.90;;;;;;5012468;28;20208;-59
2022/06/12 05:09:44;;;;;;;1999.90;999.90;;;14.40;99.90;;;;;;5012296;28;20213;-59
2022/06/12 05:12:13;;;;;;;1999.90;999.90;;;14.80;99.90;;;;;;5011853;28;20232;-59
2022/06/12 05:14:41;;;;;;;1999.90;999.90;;;15.60;99.90;;;;;;5012214;28;20198;-59
2022/06/12 05:17:11;;;;;;;1999.90;999.90;;;16.30;99.90;;;;;;5012184;28;20596;-59
2022/06/12 05:19:40;;;;;;;1999.90;999.90;;;16.90;99.90;;;;;;5012137;28;20189;-59
2022/06/12 05:22:08;;;;;;;1999.90;999.90;;;17.20;99.90;;;;;;5013484;28;20197;-59
2022/06/12 05:24:38;;;;;;;1999.90;999.90;;;17.40;99.90;;;;;;5015636;28;20576;-59
2022/06/12 05:27:09;;;;;;;1999.90;999.90;;;17.40;99.90;;;;;;5015320;28;20744;-59
2022/06/12 05:29:39;;;;;;;1999.90;999.90;;;17.30;99.90;;;;;;5015558;28;20189;-59
2022/06/12 05:32:08;;;;;;;1999.90;999.90;;;17.20;99.90;;;;;;5015540;28;20197;-59
2022/06/12 05:34:35;;;;;;;1999.90;999.90;;;17.30;99.90;;;;;;5015116;28;20678;-59
2022/06/12 05:37:02;;;;;;;1999.90;999.90;;;17.30;99.90;;;;;;5015599;28;20202;-60
2022/06/12 05:39:29;;;;;;;1999.90;999.90;;;17.70;99.90;;;;;;5015309;28;20203;-60
2022/06/12 05:41:56;;;;;;;1999.90;999.90;;;17.80;99.90;;;;;;5015189;28;20197;-60
2022/06/12 05:44:25;;;;;;;1999.90;999.90;;;18.00;99.90;;;;;;5006450;28;20218;-63
2022/06/12 05:46:52;;;;;;;1999.90;999.90;;;18.00;99.90;;;;;;4995682;28;20210;-62
2022/06/12 05:49:19;;;;;;;1999.90;999.90;;;18.60;99.90;;;;;;4994902;28;20194;-60
2022/06/12 05:51:46;;;;;;;1999.90;999.90;;;18.40;99.90;;;;;;4995081;28;20242;-60
2022/06/12 05:54:13;;;;;;;1999.90;999.90;;;18.50;99.90;;;;;;4996490;28;20193;-61
2022/06/12 05:56:40;;;;;;;1999.90;999.90;;;18.10;99.90;;;;;;5004691;28;20199;-61
2022/06/12 05:59:08;;;;;;;1999.90;999.90;;;17.90;99.90;;;;;;5006084;28;20200;-60
2022/06/12 06:01:38;;;;;;;1999.90;999.90;;;17.90;99.90;;;;;;5004625;28;20198;-60
2022/06/12 06:04:05;;;;;;;1999.90;999.90;;;17.90;99.90;;;;;;5001397;28;20766;-60
2022/06/12 06:06:36;;;;;;;1999.90;999.90;;;18.10;99.90;;;;;;4995151;28;20636;-60
2022/06/12 06:09:07;;;;;;;1999.90;999.90;;;18.70;99.90;;;;;;4994992;28;20221;-60
2022/06/12 06:11:34;;;;;;;1999.90;999.90;;;18.60;99.90;;;;;;4994501;28;20232;-61
2022/06/12 06:14:01;;;;;;;1999.90;999.90;;;18.80;99.90;;;;;;4994536;28;20671;-61
2022/06/12 06:16:28;;;;;;;1999.90;999.90;;;19.10;99.90;;;;;;4994493;28;20537;-63
2022/06/12 06:18:56;;;;;;;1999.90;999.90;;;19.10;99.90;;;;;;4994741;28;20236;-61
2022/06/12 06:21:23;;;;;;;1999.90;999.90;;;19.20;99.90;;;;;;4994204;28;20658;-60
2022/06/12 06:23:50;;;;;;;1999.90;999.90;;;19.40;99.90;;;;;;4994548;28;20210;-60
2022/06/12 06:26:19;;;;;;;1999.90;999.90;;;19.30;99.90;;;;;;4994401;28;20214;-61
2022/06/12 06:28:46;;;;;;;1999.90;999.90;;;19.30;99.90;;;;;;4994723;28;20205;-61
2022/06/12 06:31:13;;;;;;;1999.90;999.90;;;19.00;99.90;;;;;;4994501;28;20200;-60
2022/06/12 06:33:40;;;;;;;1999.90;999.90;;;19.50;99.90;;;;;;4993860;28;20201;-60
2022/06/12 06:36:09;;;;;;;1999.90;999.90;;;19.10;99.90;;;;;;4994290;28;20208;-61
2022/06/12 06:38:36;;;;;;;1999.90;999.90;;;19.80;99.90;;;;;;4994034;28;20205;-61
2022/06/12 06:41:03;;;;;;;1999.90;999.90;;;19.80;99.90;;;;;;4994026;28;20216;-61
2022/06/12 06:43:30;;;;;;;1999.90;999.90;;;19.70;99.90;;;;;;4994070;28;20568;-61
2022/06/12 06:46:14;;;;;;;1999.90;999.90;;;19.40;99.90;;;;;;4994183;28;20198;-61
2022/06/12 06:48:41;;;;;;;1999.90;999.90;;;20.00;99.90;;;;;;4994170;28;20257;-61
2022/06/12 06:51:11;;;;;;;1999.90;999.90;;;20.50;99.90;;;;;;4993915;28;20231;-62
2022/06/12 06:53:38;;;;;;;1999.90;999.90;;;20.70;99.90;;;;;;4994211;28;20296;-61
2022/06/12 06:56:06;;;;;;;1999.90;999.90;;;20.90;99.90;;;;;;4993990;28;20263;-62
2022/06/12 06:58:33;;;;;;;1999.90;999.90;;;20.20;1.00;;;;;;4993761;28;20201;-61
2022/06/12 07:01:00;;;;;;;1999.90;999.90;;;20.40;99.90;;;;;;4993927;28;20197;-62
2022/06/12 07:03:27;;;;;;;1999.90;999.90;;;20.70;1.00;;;;;;4993818;28;20237;-61
2022/06/12 07:05:55;;;;;;;1999.90;999.90;;;20.90;99.90;;;;;;4993467;28;20198;-62
2022/06/12 07:08:24;;;;;;;1999.90;999.90;;;21.30;99.90;;;;;;4993490;28;20967;-62
2022/06/12 07:10:52;;;;;;;1999.90;999.90;;;21.30;1.00;;;;;;4993644;28;20233;-62
2022/06/12 07:13:19;;;;;;;1999.90;999.90;;;21.50;99.90;;;;;;4993579;28;20190;-62
2022/06/12 07:15:47;;;;;;;1999.90;999.90;;;21.60;99.90;;;;;;4993565;28;20210;-63
2022/06/12 07:18:14;;;;;;;1999.90;999.90;;;21.30;1.00;;;;;;4993543;28;20201;-63
2022/06/12 07:20:47;;;;;;;1999.90;999.90;;;21.50;99.90;;;;;;4993225;28;20198;-63
2022/06/12 07:23:15;;;;;;;1999.90;999.90;;;21.70;1.00;;;;;;4993423;28;20210;-63
2022/06/12 07:25:47;;;;;;;1999.90;999.90;;;21.50;1.00;;;;;;4997194;28;20268;-63
2022/06/12 07:28:14;;;;;;;1999.90;999.90;;;21.40;1.00;;;;;;5012360;28;20205;-63
2022/06/12 07:30:41;;;;;;;1999.90;999.90;;;21.90;99.90;;;;;;5011896;28;20193;-64
2022/06/12 07:33:09;;;;;;;1999.90;999.90;;;22.30;1.00;;;;;;5012839;28;20196;-63
2022/06/12 07:35:38;;;;;;;1999.90;999.90;;;22.20;99.90;;;;;;5012839;28;20208;-63
2022/06/12 07:38:06;;;;;;;1999.90;999.90;;;21.70;99.90;;;;;;5012811;28;20562;-63
2022/06/12 07:40:36;;;;;;;1999.90;999.90;;;21.60;99.90;;;;;;5012833;28;20250;-63
2022/06/12 07:43:05;;;;;;;1999.90;999.90;;;21.10;14.60;;;;;;5012669;28;20201;-63
2022/06/12 07:45:32;;;;;;;1999.90;999.90;;;21.80;46.70;;;;;;5011824;28;20197;-62
2022/06/12 07:47:59;;;;;;;1999.90;999.90;;;22.30;36.00;;;;;;5012723;28;20197;-63
2022/06/12 07:50:26;;;;;;;1999.90;999.90;;;23.10;99.90;;;;;;5012245;28;20728;-64
2022/06/12 07:52:53;;;;;;;1999.90;999.90;;;23.10;99.90;;;;;;5012715;28;20266;-63
2022/06/12 07:55:21;;;;;;;1999.90;999.90;;;22.30;1.00;;;;;;5012333;28;20607;-63
2022/06/12 07:57:48;;;;;;;1999.90;999.90;;;22.50;99.90;;;;;;5012280;28;20764;-63
2022/06/12 08:00:18;;;;;;;1999.90;999.90;;;22.30;1.00;;;;;;5012540;28;20267;-63
2022/06/12 08:02:47;;;;;;;1999.90;999.90;;;22.60;1.00;;;;;;5012513;28;20200;-63
2022/06/12 08:05:16;;;;;;;1999.90;999.90;;;21.90;1.00;;;;;;5012458;28;20223;-62
2022/06/12 08:07:43;;;;;;;1999.90;999.90;;;21.70;1.00;;;;;;5012490;28;20280;-63
2022/06/12 08:10:12;;;;;;;1999.90;999.90;;;22.10;99.90;;;;;;5011906;28;20658;-63
2022/06/12 08:12:41;;;;;;;1999.90;999.90;;;22.90;99.90;;;;;;5012311;28;20185;-63
2022/06/12 08:15:11;;;;;;;1999.90;999.90;;;22.90;57.40;;;;;;5012233;28;20200;-63
2022/06/12 08:17:39;;;;;;;1999.90;999.90;;;22.60;99.90;;;;;;5012366;28;20279;-64
2022/06/12 08:20:26;;;;;;;1999.90;999.90;;;22.70;1.00;;;;;;5012173;28;20236;-63
2022/06/12 08:22:54;;;;;;;1999.90;999.90;;;23.00;1.00;;;;;;5012251;28;20185;-63
2022/06/12 08:25:22;;;;;;;1999.90;999.90;;;22.50;1.00;;;;;;5012146;28;20224;-63
2022/06/12 08:27:49;;;;;;;1999.90;999.90;;;23.20;1.00;;;;;;5012119;28;20524;-63
2022/06/12 08:30:17;;;;;;;1999.90;999.90;;;23.20;1.00;;;;;;5012214;28;20197;-63
2022/06/12 08:32:47;;;;;;;1999.90;999.90;;;23.30;1.00;;;;;;5011850;28;20678;-63
2022/06/12 08:35:19;;;;;;;1999.90;999.90;;;23.80;99.90;;;;;;5012267;28;20196;-63
2022/06/12 08:37:46;;;;;;;1999.90;999.90;;;24.10;99.90;;;;;;5011935;28;20194;-63
2022/06/12 08:40:20;;;;;;;1999.90;999.90;;;24.50;99.90;;;;;;5012164;28;20270;-64
2022/06/12 08:42:55;;;;;;;1999.90;999.90;;;24.20;16.50;;;;;;5012144;28;20198;-63
2022/06/12 08:45:25;;;;;;;1999.90;999.90;;;23.40;1.00;;;;;;5012026;28;20553;-64
2022/06/12 08:48:02;;;;;;;1999.90;999.90;;;23.00;1.00;;;;;;5012242;28;20196;-63
2022/06/12 08:50:36;;;;;;;1999.90;999.90;;;23.80;1.00;;;;;;5011675;28;20188;-63
2022/06/12 08:53:08;;;;;;;1999.90;999.90;;;24.00;1.00;;;;;;5012078;28;20193;-63
2022/06/12 08:55:40;;;;;;;1999.90;999.90;;;24.10;1.00;;;;;;5011773;28;20259;-63
2022/06/12 08:58:14;;;;;;;1999.90;999.90;;;24.70;1.00;;;;;;5014927;28;20658;-64
2022/06/12 09:00:41;;;;;;;1999.90;999.90;;;24.70;99.90;;;;;;5015791;28;20181;-64
2022/06/12 09:03:14;;;;;;;1999.90;999.90;;;25.60;1.00;;;;;;5015691;28;20237;-63
2022/06/12 09:05:50;;;;;;;1999.90;999.90;;;24.70;99.90;;;;;;5015542;28;20564;-63
2022/06/12 09:08:26;;;;;;;1999.90;999.90;;;24.60;99.90;;;;;;5015565;28;20185;-63
2022/06/12 09:10:57;;;;;;;1999.90;999.90;;;23.50;99.90;;;;;;5015344;28;20629;-64
2022/06/12 09:13:29;;;;;;;1999.90;999.90;;;24.20;99.90;;;;;;5015225;28;20225;-64
2022/06/12 09:16:05;;;;;;;1999.90;999.90;;;24.20;99.90;;;;;;5015559;28;20535;-63
2022/06/12 09:18:47;;;;;;;1999.90;999.90;;;24.20;99.90;;;;;;5015370;28;20196;-63
2022/06/12 09:21:19;;;;;;;1999.90;999.90;;;23.90;84.20;;;;;;5014876;28;20658;-63
2022/06/12 09:23:57;;;;;;;1999.90;999.90;;;24.40;1.00;;;;;;5015291;28;20189;-63
2022/06/12 09:26:35;;;;;;;1999.90;999.90;;;23.70;24.40;;;;;;5015374;28;20243;-63
2022/06/12 09:29:11;;;;;;;1999.90;999.90;;;24.70;1.00;;;;;;5015276;28;20181;-63
2022/06/12 09:31:44;;;;;;;1999.90;999.90;;;25.70;30.20;;;;;;5014985;28;20585;-63
2022/06/12 09:34:25;;;;;;;1999.90;999.90;;;24.80;1.00;;;;;;5015173;28;20186;-63
2022/06/12 09:38:18;;;;;;;1999.90;999.90;;;24.10;1.00;;;;;;5015075;28;20189;-63
2022/06/12 09:40:00;;;;;;;1999.90;999.90;;;25.00;1.00;;;;;;5014468;28;20267;-63
2022/06/12 09:42:41;;;;;;;1999.90;999.90;;;25.30;1.00;;;;;;5014916;28;20185;-63
2022/06/12 09:45:15;;;;;;;1999.90;999.90;;;25.20;1.00;;;;;;5014880;28;20215;-63
2022/06/12 09:47:47;;;;;;;1999.90;999.90;;;26.20;1.00;;;;;;5014880;28;20189;-63
2022/06/12 09:50:30;;;;;;;1999.90;999.90;;;25.20;1.00;;;;;;5015130;28;20201;-63
2022/06/12 09:53:19;;;;;;;1999.90;999.90;;;25.20;1.00;;;;;;5014746;28;20228;-63
2022/06/12 09:55:53;;;;;;;1999.90;999.90;;;24.40;1.00;;;;;;5014709;28;20185;-63
2022/06/12 09:58:31;;;;;;;1999.90;999.90;;;24.50;1.00;;;;;;5014753;28;20264;-63
2022/06/12 10:01:04;;;;;;;1999.90;999.90;;;25.80;1.00;;;;;;5014709;28;20569;-62
2022/06/12 10:03:39;;;;;;;1999.90;999.90;;;25.70;1.00;;;;;;5014663;28;20181;-62
2022/06/12 10:06:15;;;;;;;1999.90;999.90;;;25.90;1.00;;;;;;5014551;28;20205;-63
2022/06/12 10:08:49;;;;;;;1999.90;999.90;;;26.00;1.00;;;;;;5013268;28;20619;-63
2022/06/12 10:11:21;;;;;;;1999.90;999.90;;;26.00;1.00;;;;;;5014204;28;20286;-62
2022/06/12 10:13:53;;;;;;;1999.90;999.90;;;26.00;1.00;;;;;;5014243;28;20387;-63
2022/06/12 10:16:24;;;;;;;1999.90;999.90;;;27.20;99.90;;;;;;5014402;28;20204;-63
2022/06/12 10:18:56;;;;;;;1999.90;999.90;;;28.00;1.00;;;;;;5014352;28;20181;-63
2022/06/12 10:21:27;;;;;;;1999.90;999.90;;;25.90;99.90;;;;;;5013779;28;20181;-62
2022/06/12 10:23:54;;;;;;;1999.90;999.90;;;26.20;99.90;;;;;;5014168;28;20189;-62
2022/06/12 10:26:24;;;;;;;1999.90;999.90;;;26.60;99.90;;;;;;5014161;28;20193;-63
2022/06/12 10:29:02;;;;;;;1999.90;999.90;;;25.60;99.90;;;;;;5014403;28;20216;-62
2022/06/12 10:31:33;;;;;;;1999.90;999.90;;;25.30;99.90;;;;;;5013720;28;20726;-62
2022/06/12 10:34:15;;;;;;;1999.90;999.90;;;25.00;99.90;;;;;;5013990;28;20201;-62
2022/06/12 10:36:44;;;;;;;1999.90;999.90;;;25.00;99.90;;;;;;5014066;28;20181;-62
2022/06/12 10:39:17;;;;;;;1999.90;999.90;;;25.70;99.90;;;;;;5013961;28;20613;-62
2022/06/12 10:41:51;;;;;;;1999.90;999.90;;;25.40;99.90;;;;;;5013947;28;20186;-62
2022/06/12 10:44:30;;;;;;;1999.90;999.90;;;24.60;99.90;;;;;;5004266;28;20217;-62
2022/06/12 10:47:09;;;;;;;1999.90;999.90;;;25.60;99.90;;;;;;5002050;28;20708;-63
2022/06/12 10:49:36;;;;;;;1999.90;999.90;;;25.10;99.90;;;;;;5011904;28;20228;-62
2022/06/12 10:52:07;;;;;;;1999.90;999.90;;;25.70;99.90;;;;;;5012085;28;20271;-63
2022/06/12 10:54:34;;;;;;;1999.90;999.90;;;25.40;99.90;;;;;;5012286;28;20279;-63
2022/06/12 10:57:10;;;;;;;1999.90;999.90;;;26.00;99.90;;;;;;5011971;28;20221;-62
2022/06/12 10:59:39;;;;;;;1999.90;999.90;;;25.50;99.90;;;;;;5011512;28;20232;-62
2022/06/12 11:02:41;;;;;;;1999.90;999.90;;;23.80;99.90;;;;;;5012772;28;20225;-63
2022/06/12 11:05:35;;;;;;;1999.90;999.90;;;23.80;99.90;;;;;;5008731;28;20240;-62
2022/06/12 11:08:16;;;;;;;1999.90;999.90;;;24.20;99.90;;;;;;5012677;28;20216;-62
2022/06/12 11:10:49;;;;;;;1999.90;999.90;;;25.20;99.90;;;;;;5011760;28;20343;-62
2022/06/12 11:13:32;;;;;;;1999.90;999.90;;;24.30;99.90;;;;;;5012048;28;20224;-62
2022/06/12 11:16:16;;;;;;;1999.90;999.90;;;23.60;99.90;;;;;;5011946;28;20497;-61
2022/06/12 11:18:58;;;;;;;1999.90;999.90;;;24.30;99.90;;;;;;5012298;28;20239;-61
2022/06/12 11:21:37;;;;;;;1999.90;999.90;;;25.00;99.90;;;;;;5012026;28;20294;-61
2022/06/12 11:24:14;;;;;;;1999.90;999.90;;;24.60;99.90;;;;;;5012096;28;20232;-61
2022/06/12 11:27:09;;;;;;;1999.90;999.90;;;23.80;99.90;;;;;;5012098;28;20223;-61
2022/06/12 11:30:04;;;;;;;1999.90;999.90;;;23.90;99.90;;;;;;5011129;28;20237;-61
2022/06/12 11:32:46;;;;;;;1999.90;999.90;;;24.30;99.90;;;;;;5012053;28;20271;-61
2022/06/12 11:35:27;;;;;;;1999.90;999.90;;;24.50;99.90;;;;;;5011807;28;20283;-62
2022/06/12 11:38:31;;;;;;;1999.90;999.90;;;25.00;99.90;;;;;;5012028;28;20615;-62
2022/06/12 11:41:06;;;;;;;1999.90;999.90;;;25.50;99.90;;;;;;5011681;28;20316;-63
2022/06/12 11:43:36;;;;;;;1999.90;999.90;;;26.20;99.90;;;;;;5011293;28;20224;-62
2022/06/12 11:46:28;;;;;;;1999.90;999.90;;;26.70;99.90;;;;;;5011498;28;20244;-63
2022/06/12 11:49:34;;;;;;;1999.90;999.90;;;26.30;99.90;;;;;;5009571;28;20233;-63
2022/06/12 11:52:16;;;;;;;1999.90;999.90;;;26.30;99.90;;;;;;4990798;28;20237;-64
2022/06/12 11:55:01;;;;;;;1999.90;999.90;;;26.40;93.00;;;;;;5011476;28;20609;-62
2022/06/12 11:57:39;;;;;;;1999.90;999.90;;;27.30;87.40;;;;;;5011286;28;20232;-63
2022/06/12 12:00:09;;;;;;;1999.90;999.90;;;25.50;23.40;;;;;;5011320;28;20228;-63
2022/06/12 12:03:06;;;;;;;1999.90;999.90;;;25.10;72.30;;;;;;5011657;28;20233;-61
2022/06/12 12:05:46;;;;;;;1999.90;999.90;;;24.20;99.90;;;;;;5011077;28;20702;-62
2022/06/12 12:08:26;;;;;;;1999.90;999.90;;;25.80;99.90;;;;;;5011588;28;20708;-63
2022/06/12 12:11:01;;;;;;;1999.90;999.90;;;27.30;45.80;;;;;;5011107;28;20241;-62
2022/06/12 12:13:33;;;;;;;1999.90;999.90;;;27.50;23.90;;;;;;5011125;28;20224;-63
2022/06/12 12:16:04;;;;;;;1999.90;999.90;;;27.30;1.00;;;;;;5010963;28;20311;-63
2022/06/12 12:18:36;;;;;;;1999.90;999.90;;;26.70;1.00;;;;;;5011645;28;20244;-63
2022/06/12 12:21:07;;;;;;;1999.90;999.90;;;26.70;1.00;;;;;;5011247;28;20232;-62
2022/06/12 12:23:39;;;;;;;1999.90;999.90;;;27.00;1.00;;;;;;5011414;28;20283;-62
2022/06/12 12:26:13;;;;;;;1999.90;999.90;;;26.20;1.00;;;;;;5011258;28;20244;-63
2022/06/12 12:28:47;;;;;;;1999.90;999.90;;;25.10;17.90;;;;;;5010026;28;20714;-62
2022/06/12 12:31:16;;;;;;;1999.90;999.90;;;25.50;73.70;;;;;;5011335;28;20235;-62
2022/06/12 12:33:45;;;;;;;1999.90;999.90;;;26.10;18.90;;;;;;5015297;28;20243;-62